createdAt,value
2022-09-23T00:02:12.795Z,9.98
2022-09-23T00:04:41.528Z,9.93
2022-09-23T00:07:11.132Z,9.87
2022-09-23T00:09:39.321Z,9.82
2022-09-23T00:12:10.079Z,9.80
2022-09-23T00:14:39.926Z,9.76
2022-09-23T00:17:08.191Z,9.74
2022-09-23T00:19:39.213Z,9.75
2022-09-23T00:22:07.924Z,9.73
2022-09-23T00:24:37.529Z,9.72
2022-09-23T00:27:06.406Z,9.73
2022-09-23T00:29:36.080Z,9.77
2022-09-23T00:32:04.740Z,9.79
2022-09-23T00:34:33.129Z,9.83
2022-09-23T00:37:01.472Z,9.84
2022-09-23T00:39:29.867Z,9.87
2022-09-23T00:41:59.469Z,9.88
2022-09-23T00:44:48.143Z,9.92
2022-09-23T00:47:25.165Z,9.93
2022-09-23T00:50:03.511Z,9.96
2022-09-23T00:52:33.365Z,9.98
2022-09-23T00:55:04.762Z,9.99
2022-09-23T00:57:37.168Z,10.00
2022-09-23T01:00:08.547Z,10.00
2022-09-23T01:02:37.716Z,10.03
2022-09-23T01:05:08.352Z,10.06
2022-09-23T01:07:36.556Z,10.07
2022-09-23T01:10:06.588Z,10.08
2022-09-23T01:13:03.336Z,10.09
2022-09-23T01:15:42.893Z,10.09
2022-09-23T01:18:23.385Z,10.09
2022-09-23T01:21:09.287Z,10.10
2022-09-23T01:24:13.606Z,10.10
2022-09-23T01:27:02.064Z,10.10
2022-09-23T01:30:16.743Z,10.11
2022-09-23T01:33:10.762Z,10.12
2022-09-23T01:36:10.054Z,10.13
2022-09-23T01:38:47.273Z,10.14
2022-09-23T01:41:49.243Z,10.15
2022-09-23T01:44:24.300Z,10.17
2022-09-23T01:46:57.595Z,10.18
2022-09-23T01:49:36.321Z,10.20
2022-09-23T01:52:14.716Z,10.21
2022-09-23T01:54:53.200Z,10.23
2022-09-23T01:57:31.861Z,10.24
2022-09-23T02:00:08.972Z,10.26
2022-09-23T02:02:42.069Z,10.26
2022-09-23T02:05:19.886Z,10.28
2022-09-23T02:07:54.352Z,10.29
2022-09-23T02:10:28.474Z,10.29
2022-09-23T02:13:05.298Z,10.29
2022-09-23T02:15:40.250Z,10.31
2022-09-23T02:18:15.225Z,10.31
2022-09-23T02:20:45.152Z,10.29
2022-09-23T02:23:18.717Z,10.30
2022-09-23T02:25:56.017Z,10.29
2022-09-23T02:28:33.062Z,10.28
2022-09-23T02:31:12.002Z,10.27
2022-09-23T02:33:47.339Z,10.26
2022-09-23T02:36:27.028Z,10.24
2022-09-23T02:38:58.697Z,10.25
2022-09-23T02:41:33.818Z,10.24
2022-09-23T02:44:08.390Z,10.24
2022-09-23T02:46:37.932Z,10.23
2022-09-23T02:49:12.579Z,10.21
2022-09-23T02:51:42.881Z,10.21
2022-09-23T02:54:15.664Z,10.19
2022-09-23T02:56:43.976Z,10.18
2022-09-23T02:59:13.626Z,10.17
2022-09-23T03:01:56.401Z,10.17
2022-09-23T03:04:34.371Z,10.18
2022-09-23T03:07:11.821Z,10.19
2022-09-23T03:09:51.094Z,10.21
2022-09-23T03:12:36.036Z,10.22
2022-09-23T03:15:22.633Z,10.25
2022-09-23T03:17:59.794Z,10.27
2022-09-23T03:20:35.368Z,10.30
2022-09-23T03:23:09.993Z,10.32
2022-09-23T03:25:44.708Z,10.35
2022-09-23T03:28:15.886Z,10.36
2022-09-23T03:30:44.623Z,10.39
2022-09-23T03:33:16.675Z,10.40
2022-09-23T03:36:11.822Z,10.42
2022-09-23T03:38:46.706Z,10.44
2022-09-23T03:41:21.162Z,10.45
2022-09-23T03:43:49.963Z,10.47
2022-09-23T03:46:19.081Z,10.48
2022-09-23T03:48:47.614Z,10.49
2022-09-23T03:51:23.873Z,10.50
2022-09-23T03:53:53.428Z,10.51
2022-09-23T03:56:21.657Z,10.52
2022-09-23T03:58:49.826Z,10.53
2022-09-23T04:01:18.103Z,10.55
2022-09-23T04:03:46.403Z,10.56
2022-09-23T04:06:14.872Z,10.55
2022-09-23T04:08:43.121Z,10.56
2022-09-23T04:11:12.706Z,10.55
2022-09-23T04:13:40.914Z,10.56
2022-09-23T04:16:09.169Z,10.57
2022-09-23T04:18:37.532Z,10.56
2022-09-23T04:21:06.098Z,10.57
2022-09-23T04:23:34.345Z,10.58
2022-09-23T04:26:02.539Z,10.59
2022-09-23T04:28:32.156Z,10.60
2022-09-23T04:31:00.561Z,10.60
2022-09-23T04:33:28.916Z,10.62
2022-09-23T04:35:57.402Z,10.61
2022-09-23T04:38:25.855Z,10.63
2022-09-23T04:40:54.223Z,10.62
2022-09-23T04:43:23.293Z,10.61
2022-09-23T04:46:01.518Z,10.61
2022-09-23T04:48:30.432Z,10.61
2022-09-23T04:51:04.659Z,10.59
2022-09-23T04:53:33.995Z,10.60
2022-09-23T04:56:03.315Z,10.58
2022-09-23T04:58:31.819Z,10.58
2022-09-23T05:01:11.197Z,10.58
2022-09-23T05:03:40.846Z,10.57
2022-09-23T05:06:09.557Z,10.58
2022-09-23T05:08:37.969Z,10.58
2022-09-23T05:11:06.988Z,10.58
2022-09-23T05:13:35.448Z,10.58
2022-09-23T05:16:08.301Z,10.57
2022-09-23T05:18:42.681Z,10.57
2022-09-23T05:21:11.978Z,10.55
2022-09-23T05:23:41.910Z,10.53
2022-09-23T05:26:13.546Z,10.51
2022-09-23T05:28:42.003Z,10.49
2022-09-23T05:31:19.642Z,10.49
2022-09-23T05:33:51.819Z,10.47
2022-09-23T05:36:21.256Z,10.45
2022-09-23T05:38:50.830Z,10.45
2022-09-23T05:41:22.955Z,10.45
2022-09-23T05:43:52.099Z,10.46
2022-09-23T05:46:24.164Z,10.46
2022-09-23T05:48:52.670Z,10.47
2022-09-23T05:51:25.460Z,10.46
2022-09-23T05:53:58.208Z,10.48
2022-09-23T05:56:29.250Z,10.48
2022-09-23T05:59:00.368Z,10.48
2022-09-23T06:01:33.982Z,10.48
2022-09-23T06:04:05.422Z,10.49
2022-09-23T06:06:37.010Z,10.49
2022-09-23T06:09:06.074Z,10.50
2022-09-23T06:11:36.530Z,10.50
2022-09-23T06:14:05.426Z,10.51
2022-09-23T06:16:36.667Z,10.52
2022-09-23T06:19:07.014Z,10.53
2022-09-23T06:21:38.716Z,10.52
2022-09-23T06:24:08.262Z,10.53
2022-09-23T06:26:37.557Z,10.54
2022-09-23T06:29:11.790Z,10.53
2022-09-23T06:31:43.316Z,10.52
2022-09-23T06:34:13.929Z,10.51
2022-09-23T06:36:44.882Z,10.50
2022-09-23T06:39:14.429Z,10.50
2022-09-23T06:41:42.631Z,10.50
2022-09-23T06:44:10.994Z,10.49
2022-09-23T06:46:40.607Z,10.49
2022-09-23T06:49:09.158Z,10.49
2022-09-23T06:51:37.353Z,10.48
2022-09-23T06:54:05.992Z,10.50
2022-09-23T06:56:38.748Z,10.50
2022-09-23T06:59:08.962Z,10.54
2022-09-23T07:01:37.265Z,10.59
2022-09-23T07:04:07.487Z,10.68
2022-09-23T07:06:36.126Z,10.76
2022-09-23T07:09:04.844Z,10.85
2022-09-23T07:11:33.020Z,10.91
2022-09-23T07:14:01.194Z,10.96
2022-09-23T07:16:29.415Z,11.01
2022-09-23T07:18:57.870Z,11.07
2022-09-23T07:21:27.923Z,11.12
2022-09-23T07:23:58.121Z,11.20
2022-09-23T07:26:26.769Z,11.32
2022-09-23T07:28:56.818Z,11.54
2022-09-23T07:31:39.154Z,11.73
2022-09-23T07:34:09.907Z,11.93
2022-09-23T07:36:41.384Z,12.16
2022-09-23T07:39:12.154Z,12.37
2022-09-23T07:41:44.473Z,12.57
2022-09-23T07:44:13.475Z,12.71
2022-09-23T07:46:41.896Z,12.81
2022-09-23T07:49:10.498Z,12.92
2022-09-23T07:51:42.868Z,13.05
2022-09-23T07:54:14.907Z,13.15
2022-09-23T07:56:44.200Z,13.25
2022-09-23T07:59:18.260Z,13.35
2022-09-23T08:01:48.912Z,13.45
2022-09-23T08:04:20.189Z,13.55
2022-09-23T08:06:53.458Z,13.69
2022-09-23T08:09:25.380Z,13.78
2022-09-23T08:11:53.993Z,13.88
2022-09-23T08:14:23.328Z,14.01
2022-09-23T08:16:52.344Z,14.13
2022-09-23T08:19:21.094Z,14.22
2022-09-23T08:21:52.243Z,14.27
2022-09-23T08:24:24.244Z,14.30
2022-09-23T08:26:54.501Z,14.31
2022-09-23T08:29:25.804Z,14.33
2022-09-23T08:31:55.530Z,14.35
2022-09-23T08:34:24.731Z,14.42
2022-09-23T08:36:54.327Z,14.50
2022-09-23T08:39:23.116Z,14.55
2022-09-23T08:42:08.462Z,14.64
2022-09-23T08:44:50.654Z,14.82
2022-09-23T08:47:24.475Z,15.00
2022-09-23T08:50:01.310Z,15.17
2022-09-23T08:52:37.974Z,15.32
2022-09-23T08:55:11.597Z,15.41
2022-09-23T08:58:14.040Z,15.44
2022-09-23T09:00:47.785Z,15.45
2022-09-23T09:03:23.831Z,15.41
2022-09-23T09:05:54.770Z,15.40
2022-09-23T09:08:31.772Z,15.38
2022-09-23T09:11:00.844Z,15.41
2022-09-23T09:13:33.644Z,15.47
2022-09-23T09:16:41.871Z,15.58
2022-09-23T09:19:22.207Z,15.71
2022-09-23T09:21:55.490Z,15.79
2022-09-23T09:24:34.739Z,15.87
2022-09-23T09:27:10.163Z,15.98
2022-09-23T09:29:44.101Z,16.02
2022-09-23T09:32:23.223Z,16.05
2022-09-23T09:34:58.053Z,16.10
2022-09-23T09:37:32.933Z,16.21
2022-09-23T09:40:03.233Z,16.43
2022-09-23T09:42:40.433Z,16.63
2022-09-23T09:45:19.680Z,16.77
2022-09-23T09:47:56.644Z,16.90
2022-09-23T09:50:45.102Z,17.09
2022-09-23T09:53:25.770Z,17.26
2022-09-23T09:56:06.047Z,17.43
2022-09-23T09:58:46.996Z,17.57
2022-09-23T10:01:24.337Z,17.65
2022-09-23T10:03:56.934Z,17.68
2022-09-23T10:06:30.532Z,17.76
2022-09-23T10:09:16.957Z,17.93
2022-09-23T10:12:13.096Z,18.15
2022-09-23T10:14:41.266Z,18.28
2022-09-23T10:17:16.719Z,18.34
2022-09-23T10:19:49.376Z,18.31
2022-09-23T10:22:21.946Z,18.18
2022-09-23T10:24:54.244Z,18.03
2022-09-23T10:27:31.858Z,17.93
2022-09-23T10:30:03.525Z,18.00
2022-09-23T10:32:36.413Z,18.11
2022-09-23T10:35:15.903Z,18.20
2022-09-23T10:37:48.413Z,18.20
2022-09-23T10:40:40.819Z,18.12
2022-09-23T10:43:52.310Z,18.09
2022-09-23T10:46:42.263Z,18.05
2022-09-23T10:49:45.027Z,17.98
2022-09-23T10:52:32.051Z,18.00
2022-09-23T10:55:18.892Z,18.05
2022-09-23T10:58:05.058Z,18.12
2022-09-23T11:00:48.058Z,18.17
2022-09-23T11:03:57.058Z,18.20
2022-09-23T11:06:38.573Z,18.23
2022-09-23T11:09:27.232Z,18.21
2022-09-23T11:12:10.084Z,18.23
2022-09-23T11:14:50.634Z,18.30
2022-09-23T11:18:01.040Z,18.41
2022-09-23T11:20:45.581Z,18.46
2022-09-23T11:23:44.958Z,18.48
2022-09-23T11:26:32.903Z,18.50
2022-09-23T11:29:36.459Z,18.47
2022-09-23T11:32:28.303Z,18.41
2022-09-23T11:35:12.794Z,18.42
2022-09-23T11:37:46.762Z,18.51
2022-09-23T11:40:21.294Z,18.58
2022-09-23T11:42:58.109Z,18.65
2022-09-23T11:45:31.382Z,18.77
2022-09-23T11:48:06.324Z,18.84
2022-09-23T11:50:41.238Z,18.89
2022-09-23T11:53:16.699Z,18.96
2022-09-23T11:55:57.369Z,19.02
2022-09-23T11:58:31.357Z,19.02
2022-09-23T12:01:07.117Z,18.92
2022-09-23T12:03:45.818Z,18.83
2022-09-23T12:06:21.010Z,18.83
2022-09-23T12:08:55.060Z,18.90
2022-09-23T12:11:31.951Z,19.02
2022-09-23T12:14:16.609Z,19.21
2022-09-23T12:17:21.305Z,19.43
2022-09-23T12:20:18.682Z,19.54
2022-09-23T12:23:04.066Z,19.56
2022-09-23T12:25:46.647Z,19.58
2022-09-23T12:28:19.241Z,19.59
2022-09-23T12:30:49.128Z,19.64
2022-09-23T12:33:24.633Z,19.70
2022-09-23T12:35:55.273Z,19.85
2022-09-23T12:38:33.184Z,20.02
2022-09-23T12:41:08.317Z,20.11
2022-09-23T12:43:36.946Z,20.13
2022-09-23T12:46:25.659Z,20.10
2022-09-23T12:49:07.256Z,20.07
2022-09-23T12:51:36.930Z,20.02
2022-09-23T12:54:25.841Z,19.93
2022-09-23T12:57:10.982Z,19.85
2022-09-23T12:59:59.138Z,19.75
2022-09-23T13:02:36.706Z,19.68
2022-09-23T13:05:37.461Z,19.64
2022-09-23T13:08:10.777Z,19.61
2022-09-23T13:10:49.925Z,19.61
2022-09-23T13:13:26.935Z,19.69
2022-09-23T13:15:55.231Z,19.73
2022-09-23T13:19:00.112Z,19.68
2022-09-23T13:22:14.075Z,19.62
2022-09-23T13:24:48.263Z,19.56
2022-09-23T13:27:32.489Z,19.49
2022-09-23T13:30:04.914Z,19.44
2022-09-23T13:32:46.249Z,19.41
2022-09-23T13:35:26.094Z,19.41
2022-09-23T13:37:55.235Z,19.39
2022-09-23T13:40:27.201Z,19.37
2022-09-23T13:43:01.638Z,19.33
2022-09-23T13:45:32.146Z,19.28
2022-09-23T13:48:05.915Z,19.21
2022-09-23T13:50:35.636Z,19.15
2022-09-23T13:53:09.801Z,19.07
2022-09-23T13:55:41.313Z,19.02
2022-09-23T13:58:20.304Z,19.02
2022-09-23T14:00:49.945Z,19.03
2022-09-23T14:03:24.314Z,19.04
2022-09-23T14:05:54.024Z,19.03
2022-09-23T14:08:22.730Z,19.02
2022-09-23T14:10:51.925Z,18.99
2022-09-23T14:13:26.100Z,18.94
2022-09-23T14:15:58.376Z,18.90
2022-09-23T14:18:36.165Z,18.84
2022-09-23T14:21:05.076Z,18.79
2022-09-23T14:23:33.538Z,18.77
2022-09-23T14:26:03.602Z,18.74
2022-09-23T14:28:33.525Z,18.67
2022-09-23T14:31:03.233Z,18.61
2022-09-23T14:33:35.263Z,18.57
2022-09-23T14:36:16.917Z,18.56
2022-09-23T14:38:53.141Z,18.53
2022-09-23T14:41:25.265Z,18.50
2022-09-23T14:43:58.395Z,18.45
2022-09-23T14:46:30.410Z,18.45
2022-09-23T14:49:07.750Z,18.41
2022-09-23T14:51:50.399Z,18.38
2022-09-23T14:54:34.095Z,18.37
2022-09-23T14:57:05.944Z,18.36
2022-09-23T14:59:37.889Z,18.33
2022-09-23T15:02:35.775Z,18.30
2022-09-23T15:05:17.726Z,18.29
2022-09-23T15:07:50.824Z,18.28
2022-09-23T15:10:24.645Z,18.27
2022-09-23T15:12:55.318Z,18.26
2022-09-23T15:15:29.105Z,18.24
2022-09-23T15:18:05.054Z,18.22
2022-09-23T15:20:33.491Z,18.22
2022-09-23T15:23:02.006Z,18.23
2022-09-23T15:25:35.486Z,18.22
2022-09-23T15:28:18.956Z,18.21
2022-09-23T15:30:48.773Z,18.21
2022-09-23T15:33:17.034Z,18.19
2022-09-23T15:35:50.140Z,18.15
2022-09-23T15:38:18.621Z,18.09
2022-09-23T15:40:46.916Z,18.01
2022-09-23T15:43:20.941Z,17.92
2022-09-23T15:45:53.829Z,17.81
2022-09-23T15:48:26.913Z,17.73
2022-09-23T15:50:55.802Z,17.66
2022-09-23T15:53:27.128Z,17.60
2022-09-23T15:55:55.686Z,17.57
2022-09-23T15:58:26.036Z,17.54
2022-09-23T16:00:57.504Z,17.50
2022-09-23T16:03:28.607Z,17.48
2022-09-23T16:06:01.181Z,17.48
2022-09-23T16:08:30.065Z,17.46
2022-09-23T16:10:58.375Z,17.45
2022-09-23T16:13:26.572Z,17.44
2022-09-23T16:15:56.350Z,17.40
2022-09-23T16:18:24.617Z,17.36
2022-09-23T16:20:52.807Z,17.33
2022-09-23T16:23:34.489Z,17.27
2022-09-23T16:26:07.262Z,17.20
2022-09-23T16:28:35.708Z,17.14
2022-09-23T16:31:05.687Z,17.08
2022-09-23T16:33:33.931Z,17.00
2022-09-23T16:36:02.896Z,16.92
2022-09-23T16:38:31.700Z,16.86
2022-09-23T16:41:00.867Z,16.76
2022-09-23T16:43:31.670Z,16.68
2022-09-23T16:46:00.102Z,16.60
2022-09-23T16:48:29.681Z,16.51
2022-09-23T16:50:57.868Z,16.43
2022-09-23T16:53:29.716Z,16.36
2022-09-23T16:55:58.903Z,16.26
2022-09-23T16:58:27.105Z,16.20
2022-09-23T17:01:16.472Z,16.14
2022-09-23T17:03:47.217Z,16.06
2022-09-23T17:06:18.025Z,16.00
2022-09-23T17:08:48.324Z,15.93
2022-09-23T17:11:17.055Z,15.87
2022-09-23T17:13:46.011Z,15.80
2022-09-23T17:16:28.244Z,15.72
2022-09-23T17:18:58.311Z,15.65
2022-09-23T17:21:28.415Z,15.58
2022-09-23T17:23:58.807Z,15.52
2022-09-23T17:26:29.004Z,15.47
2022-09-23T17:28:59.417Z,15.42
2022-09-23T17:31:27.979Z,15.38
2022-09-23T17:33:57.646Z,15.34
2022-09-23T17:36:28.017Z,15.31
2022-09-23T17:38:56.794Z,15.29
2022-09-23T17:41:25.239Z,15.25
2022-09-23T17:43:58.492Z,15.24
2022-09-23T17:46:28.902Z,15.20
2022-09-23T17:48:59.383Z,15.17
2022-09-23T17:51:27.827Z,15.14
2022-09-23T17:53:55.989Z,15.11
2022-09-23T17:56:26.284Z,15.06
2022-09-23T17:58:55.322Z,15.01
2022-09-23T18:01:25.562Z,14.95
2022-09-23T18:03:55.936Z,14.90
2022-09-23T18:06:31.543Z,14.83
2022-09-23T18:09:03.856Z,14.78
2022-09-23T18:11:35.215Z,14.74
2022-09-23T18:14:06.645Z,14.69
2022-09-23T18:16:38.223Z,14.63
2022-09-23T18:19:08.704Z,14.59
2022-09-23T18:21:41.116Z,14.56
2022-09-23T18:26:59.738Z,14.47
2022-09-23T18:29:28.110Z,14.41
2022-09-23T18:31:56.732Z,14.36
2022-09-23T18:34:25.301Z,14.31
2022-09-23T18:36:56.160Z,14.26
2022-09-23T18:39:24.463Z,14.21
2022-09-23T18:41:52.664Z,14.15
2022-09-23T18:44:20.886Z,14.10
2022-09-23T18:46:49.087Z,14.03
2022-09-23T18:49:34.550Z,13.97
2022-09-23T18:52:04.274Z,13.90
2022-09-23T18:54:32.452Z,13.84
2022-09-23T18:57:01.285Z,13.78
2022-09-23T18:59:31.746Z,13.73
2022-09-23T19:02:00.197Z,13.68
2022-09-23T19:04:29.054Z,13.63
2022-09-23T19:06:57.899Z,13.59
2022-09-23T19:09:27.628Z,13.56
2022-09-23T19:11:55.787Z,13.51
2022-09-23T19:14:23.958Z,13.47
2022-09-23T19:16:52.134Z,13.42
2022-09-23T19:19:20.443Z,13.39
2022-09-23T19:21:48.611Z,13.35
2022-09-23T19:24:19.982Z,13.32
2022-09-23T19:26:50.402Z,13.29
2022-09-23T19:29:21.696Z,13.25
2022-09-23T19:31:50.967Z,13.22
2022-09-23T19:34:23.761Z,13.19
2022-09-23T19:36:52.769Z,13.14
2022-09-23T19:39:23.349Z,13.12
2022-09-23T19:41:55.832Z,13.09
2022-09-23T19:44:25.170Z,13.06
2022-09-23T19:46:56.658Z,13.03
2022-09-23T19:49:25.944Z,12.99
2022-09-23T19:51:55.803Z,12.95
2022-09-23T19:54:27.110Z,12.89
2022-09-23T19:56:56.851Z,12.85
2022-09-23T19:59:26.236Z,12.79
2022-09-23T20:01:54.800Z,12.72
2022-09-23T20:04:23.422Z,12.67
2022-09-23T20:06:51.615Z,12.62
2022-09-23T20:09:20.011Z,12.55
2022-09-23T20:11:48.255Z,12.49
2022-09-23T20:14:19.793Z,12.43
2022-09-23T20:16:48.351Z,12.36
2022-09-23T20:19:16.674Z,12.30
2022-09-23T20:21:44.874Z,12.22
2022-09-23T20:24:13.142Z,12.18
2022-09-23T20:26:58.899Z,12.11
2022-09-23T20:29:28.818Z,12.04
2022-09-23T20:31:59.196Z,11.99
2022-09-23T20:34:29.852Z,11.93
2022-09-23T20:36:59.235Z,11.90
2022-09-23T20:39:28.065Z,11.85
2022-09-23T20:41:56.310Z,11.82
2022-09-23T20:44:24.485Z,11.76
2022-09-23T20:46:54.061Z,11.73
2022-09-23T20:49:22.670Z,11.70
2022-09-23T20:51:51.450Z,11.67
2022-09-23T20:54:20.014Z,11.65
2022-09-23T20:56:48.541Z,11.63
2022-09-23T20:59:17.966Z,11.60
2022-09-23T21:01:47.606Z,11.58
2022-09-23T21:04:17.825Z,11.55
2022-09-23T21:06:46.421Z,11.52
2022-09-23T21:09:14.607Z,11.49
2022-09-23T21:11:42.986Z,11.47
2022-09-23T21:14:11.455Z,11.45
2022-09-23T21:16:39.784Z,11.43
2022-09-23T21:19:08.504Z,11.41
2022-09-23T21:21:38.101Z,11.38
2022-09-23T21:24:37.800Z,11.37
2022-09-23T21:26:55.130Z,11.34
2022-09-23T21:29:23.363Z,11.33
2022-09-23T21:31:51.542Z,11.32
2022-09-23T21:34:19.885Z,11.29
2022-09-23T21:36:49.635Z,11.29
2022-09-23T21:39:17.801Z,11.27
2022-09-23T21:41:45.992Z,11.25
2022-09-23T21:44:14.375Z,11.24
2022-09-23T21:46:42.640Z,11.24
2022-09-23T21:49:10.857Z,11.19
2022-09-23T21:51:41.641Z,11.18
2022-09-23T21:54:15.544Z,11.15
2022-09-23T21:56:45.107Z,11.14
2022-09-23T21:59:13.583Z,11.13
2022-09-23T22:01:44.936Z,11.12
2022-09-23T22:04:17.006Z,11.10
2022-09-23T22:06:46.656Z,11.08
2022-09-23T22:09:19.153Z,11.08
2022-09-23T22:12:08.982Z,11.06
2022-09-23T22:14:38.876Z,11.05
2022-09-23T22:17:10.861Z,11.04
2022-09-23T22:19:44.143Z,11.04
2022-09-23T22:22:17.640Z,11.03
2022-09-23T22:24:48.460Z,11.02
2022-09-23T22:27:19.257Z,11.01
2022-09-23T22:30:05.339Z,10.99
2022-09-23T22:32:43.362Z,10.98
2022-09-23T22:35:16.477Z,10.96
2022-09-23T22:37:45.319Z,10.95
2022-09-23T22:40:16.708Z,10.92
2022-09-23T22:42:45.801Z,10.90
2022-09-23T22:45:14.622Z,10.90
2022-09-23T22:47:45.390Z,10.85
2022-09-23T22:50:15.420Z,10.83
2022-09-23T22:52:43.797Z,10.82
2022-09-23T22:55:12.490Z,10.79
2022-09-23T22:57:42.164Z,10.76
2022-09-23T23:00:12.686Z,10.75
2022-09-23T23:02:42.341Z,10.73
2022-09-23T23:05:10.982Z,10.72
2022-09-23T23:07:39.219Z,10.69
2022-09-23T23:10:10.073Z,10.67
2022-09-23T23:12:40.134Z,10.65
2022-09-23T23:15:12.412Z,10.61
2022-09-23T23:17:43.498Z,10.59
2022-09-23T23:20:12.052Z,10.57
2022-09-23T23:22:40.257Z,10.54
2022-09-23T23:25:09.691Z,10.53
2022-09-23T23:27:37.959Z,10.50
2022-09-23T23:30:08.297Z,10.48
2022-09-23T23:32:37.869Z,10.45
2022-09-23T23:35:07.235Z,10.44
2022-09-23T23:37:35.414Z,10.42
2022-09-23T23:40:03.875Z,10.42
2022-09-23T23:42:32.867Z,10.40
2022-09-23T23:45:01.327Z,10.38
2022-09-23T23:47:29.506Z,10.37
2022-09-23T23:49:59.366Z,10.36
2022-09-23T23:52:27.546Z,10.36
2022-09-23T23:54:55.937Z,10.34
2022-09-23T23:57:24.111Z,10.33
2022-09-23T23:59:52.275Z,10.31
